Time;durP1;ratioP1;P1;durP2;ratioP2;P2;SDS_P1;SDS_P2;PMS_P1;PMS_P2;Temp;Humidity;BMP_temperature;BMP_pressure;BME280_temperature;BME280_humidity;BME280_pressure;Samples;Min_cycle;Max_cycle;Signal;HPM_P1;HPM_P2
2022/12/06 00:00:18;;;;;;;;;;;;;;;11.21;92.48;100698.22;5009177;28;20135;-72
2022/12/06 00:02:43;;;;;;;;;;;;;;;10.81;93.52;100696.59;5029042;28;19970;-72
2022/12/06 00:05:08;;;;;;;;;;;;;;;10.96;94.32;100691.69;5028487;28;20119;-66
2022/12/06 00:07:34;;;;;;;;;;;;;;;10.97;93.78;100687.25;5026714;28;19920;-65
2022/12/06 00:09:59;;;;;;;;;;;;;;;10.98;93.78;100696.88;5028532;28;19923;-65
2022/12/06 00:12:25;;;;;;;;;;;;;;;11.04;94.08;100698.94;5026743;28;19913;-65
2022/12/06 00:14:50;;;;;;;;;;;;;;;11.03;93.71;100697.28;5027900;28;19917;-73
2022/12/06 00:17:15;;;;;;;;;;;;;;;11.13;93.77;100692.78;5009437;28;19980;-72
2022/12/06 00:19:41;;;;;;;;;;;;;;;11.22;93.87;100693.75;5028197;28;19924;-65
2022/12/06 00:22:06;;;;;;;;;;;;;;;11.24;92.77;100686.50;5028315;28;20223;-65
2022/12/06 00:24:33;;;;;;;;;;;;;;;11.12;93.49;100691.97;5027273;28;19988;-65
2022/12/06 00:26:58;;;;;;;;;;;;;;;11.16;93.54;100684.56;5028981;28;19928;-66
2022/12/06 00:29:23;;;;;;;;;;;;;;;11.10;93.49;100685.97;5027169;28;20255;-65
2022/12/06 00:31:49;;;;;;;;;;;;;;;10.99;94.44;100686.13;5028987;28;19958;-72
2022/12/06 00:34:14;;;;;;;;;;;;;;;10.96;93.96;100680.25;5025759;28;19921;-65
2022/12/06 00:36:40;;;;;;;;;;;;;;;11.10;94.27;100685.13;5011203;28;19920;-68
2022/12/06 00:39:07;;;;;;;;;;;;;;;11.15;93.43;100682.88;5026443;28;19951;-70
2022/12/06 00:41:33;;;;;;;;;;;;;;;11.14;94.03;100683.88;5028482;28;19912;-72
2022/12/06 00:43:58;;;;;;;;;;;;;;;11.18;93.88;100685.25;5026235;28;19926;-73
2022/12/06 00:46:25;;;;;;;;;;;;;;;11.23;94.04;100679.50;5026985;28;19913;-73
2022/12/06 00:48:51;;;;;;;;;;;;;;;11.27;93.49;100672.94;5027664;28;19917;-73
2022/12/06 00:51:17;;;;;;;;;;;;;;;11.27;93.32;100671.13;5027877;28;20137;-73
2022/12/06 00:53:43;;;;;;;;;;;;;;;11.23;93.40;100669.75;5009448;28;19922;-72
2022/12/06 00:56:09;;;;;;;;;;;;;;;11.20;93.74;100662.91;5021534;28;19913;-72
2022/12/06 00:58:34;;;;;;;;;;;;;;;11.23;94.63;100663.59;5023394;28;20142;-73
2022/12/06 01:01:06;;;;;;;;;;;;;;;11.22;93.54;100657.47;5009235;28;19921;-65
2022/12/06 01:03:32;;;;;;;;;;;;;;;11.23;94.65;100651.19;5026149;28;19932;-72
2022/12/06 01:05:57;;;;;;;;;;;;;;;11.25;93.34;100653.69;5026146;28;20386;-65
2022/12/06 01:08:22;;;;;;;;;;;;;;;11.28;93.54;100646.28;5027388;28;19921;-66
2022/12/06 01:10:52;;;;;;;;;;;;;;;11.35;93.77;100643.91;5025768;28;19921;-65
2022/12/06 01:13:17;;;;;;;;;;;;;;;11.30;93.38;100631.06;5010060;28;20265;-66
2022/12/06 01:15:42;;;;;;;;;;;;;;;11.25;93.48;100628.03;5024915;28;19913;-73
2022/12/06 01:18:08;;;;;;;;;;;;;;;11.15;93.78;100633.34;5027063;28;19913;-73
2022/12/06 01:20:33;;;;;;;;;;;;;;;11.15;94.02;100621.91;5025634;28;19929;-72
2022/12/06 01:22:59;;;;;;;;;;;;;;;11.14;94.38;100622.91;5027978;28;19921;-65
2022/12/06 01:25:24;;;;;;;;;;;;;;;11.15;93.32;100617.44;5027226;28;19913;-72
2022/12/06 01:27:49;;;;;;;;;;;;;;;11.19;94.24;100623.28;5026458;28;19996;-72
2022/12/06 01:30:14;;;;;;;;;;;;;;;11.24;93.48;100614.91;5025604;28;19913;-72
2022/12/06 01:32:40;;;;;;;;;;;;;;;11.23;93.50;100608.78;5019016;28;19997;-65
2022/12/06 01:35:05;;;;;;;;;;;;;;;10.94;93.36;100565.63;5026582;28;19917;-72
2022/12/06 01:37:30;;;;;;;;;;;;;;;11.21;94.49;100624.00;5025840;28;19920;-65
2022/12/06 01:39:56;;;;;;;;;;;;;;;11.20;94.15;100619.66;5027803;28;19979;-72
2022/12/06 01:42:21;;;;;;;;;;;;;;;11.21;94.77;100621.34;5007134;28;20202;-73
2022/12/06 01:44:46;;;;;;;;;;;;;;;11.25;94.37;100617.41;5025892;28;19917;-73
2022/12/06 01:47:14;;;;;;;;;;;;;;;11.30;93.96;100624.94;5024936;28;19918;-72
2022/12/06 01:49:40;;;;;;;;;;;;;;;11.25;94.87;100624.53;5025796;28;19924;-66
2022/12/06 01:52:08;;;;;;;;;;;;;;;11.28;94.08;100618.94;5027353;28;19913;-73
2022/12/06 01:54:34;;;;;;;;;;;;;;;11.26;94.14;100619.09;5025560;28;19993;-66
2022/12/06 01:57:00;;;;;;;;;;;;;;;11.24;93.93;100623.69;5027026;28;19913;-73
2022/12/06 01:59:26;;;;;;;;;;;;;;;11.29;94.44;100612.66;5025719;28;19939;-72
2022/12/06 02:01:51;;;;;;;;;;;;;;;11.33;93.32;100614.88;5005895;28;19921;-66
2022/12/06 02:04:18;;;;;;;;;;;;;;;11.33;94.28;100625.47;5020488;28;19924;-65
2022/12/06 02:06:43;;;;;;;;;;;;;;;11.35;94.36;100614.72;5006681;28;19977;-72
2022/12/06 02:09:10;;;;;;;;;;;;;;;11.33;93.64;100608.72;5005624;28;19921;-73
2022/12/06 02:11:36;;;;;;;;;;;;;;;11.31;93.52;100603.56;5006133;28;19913;-66
2022/12/06 02:14:08;;;;;;;;;;;;;;;11.32;93.56;100604.41;5021011;28;19917;-66
2022/12/06 02:16:52;;;;;;;;;;;;;;;11.36;93.73;100592.53;5008404;28;19920;-65
2022/12/06 02:19:39;;;;;;;;;;;;;;;11.39;92.98;100595.72;5007574;28;19918;-73
2022/12/06 02:22:12;;;;;;;;;;;;;;;11.26;92.63;100599.69;5019908;28;19952;-72
2022/12/06 02:25:00;;;;;;;;;;;;;;;11.20;93.78;100593.16;5009174;28;19956;-72
2022/12/06 02:27:44;;;;;;;;;;;;;;;11.17;94.22;100593.44;5007347;28;19921;-66
2022/12/06 02:30:12;;;;;;;;;;;;;;;11.21;94.60;100592.19;5010340;28;20092;-72
2022/12/06 02:32:37;;;;;;;;;;;;;;;11.27;94.18;100593.41;5010915;28;19913;-65
2022/12/06 02:35:03;;;;;;;;;;;;;;;10.96;93.46;100540.66;5009538;28;20298;-65
2022/12/06 02:37:37;;;;;;;;;;;;;;;11.30;94.43;100593.13;5009871;28;20266;-66
2022/12/06 02:40:05;;;;;;;;;;;;;;;11.33;94.11;100591.00;5009074;28;19918;-66
2022/12/06 02:42:49;;;;;;;;;;;;;;;11.32;93.40;100596.47;5009288;28;19944;-65
2022/12/06 02:45:18;;;;;;;;;;;;;;;11.34;93.70;100590.03;5008713;28;19929;-65
2022/12/06 02:47:44;;;;;;;;;;;;;;;11.33;93.30;100585.72;5009839;28;19921;-73
2022/12/06 02:50:15;;;;;;;;;;;;;;;11.32;93.37;100602.59;5007939;28;19928;-73
2022/12/06 02:52:42;;;;;;;;;;;;;;;11.32;93.31;100599.94;5009566;28;19913;-65
2022/12/06 02:55:07;;;;;;;;;;;;;;;11.30;94.08;100603.72;5013827;28;19917;-73
2022/12/06 02:57:53;;;;;;;;;;;;;;;11.31;94.17;100606.22;5008809;28;19920;-70
2022/12/06 03:00:28;;;;;;;;;;;;;;;11.33;93.46;100603.44;5008841;28;19925;-73
2022/12/06 03:02:57;;;;;;;;;;;;;;;11.36;93.68;100605.78;5030540;28;19935;-65
2022/12/06 03:05:26;;;;;;;;;;;;;;;11.32;93.38;100605.25;5029643;28;20080;-72
2022/12/06 03:07:52;;;;;;;;;;;;;;;11.34;93.64;100607.75;5028806;28;19925;-66
2022/12/06 03:10:26;;;;;;;;;;;;;;;11.36;93.25;100601.31;5028769;28;19988;-65
2022/12/06 03:13:00;;;;;;;;;;;;;;;11.36;93.40;100590.72;5029424;28;20131;-73
2022/12/06 03:15:26;;;;;;;;;;;;;;;11.39;93.71;100586.94;5027796;28;20257;-73
2022/12/06 03:17:53;;;;;;;;;;;;;;;11.40;92.86;100594.75;5028817;28;19922;-73
2022/12/06 03:20:24;;;;;;;;;;;;;;;11.40;93.02;100591.25;5027817;28;19927;-66
2022/12/06 03:22:53;;;;;;;;;;;;;;;11.41;92.94;100596.41;5011441;28;19913;-65
2022/12/06 03:25:18;;;;;;;;;;;;;;;11.38;92.88;100588.75;5025946;28;20103;-73
2022/12/06 03:27:45;;;;;;;;;;;;;;;11.43;92.70;100594.44;5024941;28;19917;-73
2022/12/06 03:30:12;;;;;;;;;;;;;;;11.35;93.17;100594.34;5024593;28;19917;-73
2022/12/06 03:32:39;;;;;;;;;;;;;;;11.32;93.64;100585.84;5026646;28;20203;-66
2022/12/06 03:35:06;;;;;;;;;;;;;;;11.38;93.16;100590.56;5026990;28;19924;-72
2022/12/06 03:37:33;;;;;;;;;;;;;;;11.36;92.70;100588.06;5028992;28;19928;-65
2022/12/06 03:40:05;;;;;;;;;;;;;;;11.38;93.34;100585.25;5027295;28;19925;-72
2022/12/06 03:42:31;;;;;;;;;;;;;;;11.39;93.09;100586.94;5028038;28;19983;-67
2022/12/06 03:44:57;;;;;;;;;;;;;;;11.42;92.39;100587.47;5028559;28;19929;-65
2022/12/06 03:47:32;;;;;;;;;;;;;;;11.44;91.61;100585.53;5027643;28;19914;-66
2022/12/06 03:50:01;;;;;;;;;;;;;;;11.32;92.65;100585.84;5011735;28;19980;-73
2022/12/06 03:52:27;;;;;;;;;;;;;;;11.00;92.44;100544.69;5027064;28;19953;-65
2022/12/06 03:54:52;;;;;;;;;;;;;;;11.23;93.19;100584.91;5028392;28;19925;-72
2022/12/06 03:57:18;;;;;;;;;;;;;;;11.23;92.90;100586.72;5027206;28;19991;-66
2022/12/06 03:59:43;;;;;;;;;;;;;;;11.19;92.89;100583.53;5037550;28;19964;-65
2022/12/06 04:02:08;;;;;;;;;;;;;;;11.24;92.69;100586.59;5028170;28;19951;-73
2022/12/06 04:04:34;;;;;;;;;;;;;;;11.28;92.02;100580.00;5027997;28;19989;-65
2022/12/06 04:06:59;;;;;;;;;;;;;;;11.32;92.17;100581.38;5028212;28;19914;-65
2022/12/06 04:12:59;;;;;;;;;;;;;;;11.31;92.02;100585.00;5027121;28;19984;-73
2022/12/06 04:14:53;;;;;;;;;;;;;;;11.29;92.93;100584.34;5027779;28;19924;-66
2022/12/06 04:20:02;;;;;;;;;;;;;;;11.26;91.39;100584.63;5028239;28;20138;-72
2022/12/06 04:25:12;;;;;;;;;;;;;;;11.25;90.96;100572.34;5028897;28;19937;-66
2022/12/06 04:38:42;;;;;;;;;;;;;;;11.01;92.04;100575.50;5026642;28;19924;-73
2022/12/06 04:41:10;;;;;;;;;;;;;;;11.04;92.74;100567.28;5026065;28;19913;-66
2022/12/06 04:43:42;;;;;;;;;;;;;;;11.10;92.60;100565.84;5009190;28;20206;-73
2022/12/06 04:46:07;;;;;;;;;;;;;;;11.10;92.47;100572.00;5025566;28;19955;-73
2022/12/06 04:48:33;;;;;;;;;;;;;;;11.14;92.72;100572.53;5027567;28;20203;-73
2022/12/06 04:50:58;;;;;;;;;;;;;;;11.21;92.75;100568.31;5026568;28;20207;-66
2022/12/06 04:53:23;;;;;;;;;;;;;;;11.18;92.06;100572.09;5027802;28;19929;-66
2022/12/06 04:55:49;;;;;;;;;;;;;;;11.18;92.62;100574.75;5025913;28;20107;-70
2022/12/06 04:58:14;;;;;;;;;;;;;;;11.22;93.12;100569.16;5027830;28;19980;-73
2022/12/06 05:00:43;;;;;;;;;;;;;;;11.19;92.11;100573.75;5027105;28;19913;-66
2022/12/06 05:03:09;;;;;;;;;;;;;;;11.22;93.41;100580.59;5026369;28;19917;-73
2022/12/06 05:05:34;;;;;;;;;;;;;;;11.29;93.29;100579.03;5026349;28;19921;-73
2022/12/06 05:07:59;;;;;;;;;;;;;;;11.28;92.39;100576.53;5027227;28;20142;-71
2022/12/06 05:10:25;;;;;;;;;;;;;;;11.22;93.64;100596.50;5009953;28;19913;-66
2022/12/06 05:12:50;;;;;;;;;;;;;;;11.24;93.42;100583.09;5024232;28;19929;-73
2022/12/06 05:15:15;;;;;;;;;;;;;;;11.27;93.77;100596.06;5027964;28;19959;-73
2022/12/06 05:17:40;;;;;;;;;;;;;;;11.25;92.88;100590.91;5027540;28;19913;-66
2022/12/06 05:20:07;;;;;;;;;;;;;;;11.20;93.19;100588.69;5026199;28;20047;-66
2022/12/06 05:22:32;;;;;;;;;;;;;;;11.17;93.40;100588.16;5026472;28;20262;-66
2022/12/06 05:24:57;;;;;;;;;;;;;;;11.16;93.01;100594.44;5026734;28;19924;-73
2022/12/06 05:27:22;;;;;;;;;;;;;;;11.19;94.03;100591.50;5026820;28;20188;-73
2022/12/06 05:29:48;;;;;;;;;;;;;;;11.29;92.86;100583.50;5025239;28;19918;-66
2022/12/06 05:32:13;;;;;;;;;;;;;;;11.27;93.10;100588.09;5028595;28;20316;-72
2022/12/06 05:34:38;;;;;;;;;;;;;;;11.22;93.48;100588.53;5007560;28;19924;-66
2022/12/06 05:37:04;;;;;;;;;;;;;;;11.10;94.52;100590.53;5026343;28;19913;-73
2022/12/06 05:39:29;;;;;;;;;;;;;;;11.16;93.88;100592.63;5026746;28;20199;-66
2022/12/06 05:41:54;;;;;;;;;;;;;;;11.21;93.66;100584.22;5027303;28;19921;-72
2022/12/06 05:44:19;;;;;;;;;;;;;;;11.15;93.73;100587.47;5026094;28;20188;-73
2022/12/06 05:46:45;;;;;;;;;;;;;;;11.11;93.32;100588.72;5032538;28;19912;-73
2022/12/06 05:49:10;;;;;;;;;;;;;;;11.05;94.16;100591.97;5040191;28;19921;-73
2022/12/06 05:51:35;;;;;;;;;;;;;;;11.07;94.84;100588.19;5039467;28;19944;-73
2022/12/06 05:54:03;;;;;;;;;;;;;;;11.15;94.23;100588.28;5040240;28;19916;-67
2022/12/06 05:56:29;;;;;;;;;;;;;;;11.14;94.77;100591.91;5039962;28;19925;-66
2022/12/06 05:58:54;;;;;;;;;;;;;;;11.23;94.45;100590.22;5041969;28;20102;-73
2022/12/06 06:01:19;;;;;;;;;;;;;;;11.18;93.78;100593.31;5043547;28;19913;-66
2022/12/06 06:03:44;;;;;;;;;;;;;;;11.20;93.74;100594.00;5044059;28;20191;-66
2022/12/06 06:06:10;;;;;;;;;;;;;;;11.28;93.05;100590.63;5043899;28;19940;-73
2022/12/06 06:08:35;;;;;;;;;;;;;;;11.26;92.40;100595.22;5026116;28;19924;-66
2022/12/06 06:11:01;;;;;;;;;;;;;;;11.23;93.38;100599.97;5043787;28;20218;-74
2022/12/06 06:13:26;;;;;;;;;;;;;;;11.10;93.15;100601.16;5043889;28;19979;-74
2022/12/06 06:15:51;;;;;;;;;;;;;;;11.04;93.54;100583.16;5042727;28;19919;-66
2022/12/06 06:18:17;;;;;;;;;;;;;;;11.16;93.42;100587.31;5044159;28;19917;-66
2022/12/06 06:20:46;;;;;;;;;;;;;;;11.15;92.57;100595.41;5043733;28;19935;-73
2022/12/06 06:23:12;;;;;;;;;;;;;;;11.19;93.51;100589.66;5039712;28;19924;-73
2022/12/06 06:25:38;;;;;;;;;;;;;;;11.26;92.18;100584.63;5044095;28;19913;-73
2022/12/06 06:28:03;;;;;;;;;;;;;;;11.32;92.33;100581.38;5043492;28;20207;-73
2022/12/06 06:30:29;;;;;;;;;;;;;;;11.23;91.99;100578.78;5042552;28;19934;-66
2022/12/06 06:32:54;;;;;;;;;;;;;;;11.23;92.41;100578.78;5043454;28;19913;-67
2022/12/06 06:35:19;;;;;;;;;;;;;;;11.04;92.88;100582.34;5043197;28;19951;-66
2022/12/06 06:37:45;;;;;;;;;;;;;;;11.16;92.56;100587.31;5043391;28;19909;-72
2022/12/06 06:40:10;;;;;;;;;;;;;;;11.22;92.89;100587.72;5043733;28;19978;-67
2022/12/06 06:42:36;;;;;;;;;;;;;;;11.30;93.03;100578.03;5043284;28;19913;-66
2022/12/06 06:45:01;;;;;;;;;;;;;;;11.34;93.06;100582.06;5041125;28;19940;-73
2022/12/06 06:47:26;;;;;;;;;;;;;;;11.14;93.10;100591.09;5043381;28;19913;-73
2022/12/06 06:49:51;;;;;;;;;;;;;;;11.20;92.36;100586.03;5043025;28;20102;-74
2022/12/06 06:52:17;;;;;;;;;;;;;;;11.20;93.38;100583.38;5041801;28;19921;-73
2022/12/06 06:54:42;;;;;;;;;;;;;;;11.23;92.89;100584.91;5044926;28;20268;-66
2022/12/06 06:57:07;;;;;;;;;;;;;;;11.24;93.05;100580.44;5042730;28;19909;-73
2022/12/06 06:59:33;;;;;;;;;;;;;;;11.31;92.36;100585.00;5042814;28;19917;-66
2022/12/06 07:01:58;;;;;;;;;;;;;;;11.35;92.24;100596.16;5042783;28;19927;-66
2022/12/06 07:04:23;;;;;;;;;;;;;;;11.48;91.61;100589.56;5043128;28;19928;-73
2022/12/06 07:06:48;;;;;;;;;;;;;;;11.50;91.21;100592.06;5043532;28;19947;-73
2022/12/06 07:09:14;;;;;;;;;;;;;;;11.55;90.84;100596.94;5043910;28;19936;-66
2022/12/06 07:11:39;;;;;;;;;;;;;;;11.55;91.67;100592.47;5044153;28;19913;-73
2022/12/06 07:14:04;;;;;;;;;;;;;;;11.60;91.12;100592.03;5042611;28;20268;-66
2022/12/06 07:16:29;;;;;;;;;;;;;;;11.56;91.28;100580.88;5042520;28;19951;-73
2022/12/06 07:18:55;;;;;;;;;;;;;;;11.59;90.64;100585.88;5041594;28;19924;-67
2022/12/06 07:21:23;;;;;;;;;;;;;;;11.61;90.32;100585.75;5042722;28;19944;-66
2022/12/06 07:23:48;;;;;;;;;;;;;;;11.35;91.22;100582.91;5043523;28;19917;-73
2022/12/06 07:26:15;;;;;;;;;;;;;;;11.45;90.98;100579.25;5041623;28;19935;-66
2022/12/06 07:28:41;;;;;;;;;;;;;;;11.57;91.00;100582.56;5042400;28;19925;-73
2022/12/06 07:31:08;;;;;;;;;;;;;;;11.67;89.17;100578.03;5042623;28;20008;-67
2022/12/06 07:33:33;;;;;;;;;;;;;;;11.60;90.27;100574.28;5038252;28;19956;-73
2022/12/06 07:35:59;;;;;;;;;;;;;;;11.68;89.60;100571.72;5043253;28;19944;-66
2022/12/06 07:38:24;;;;;;;;;;;;;;;11.74;89.93;100578.25;5043966;28;19924;-66
2022/12/06 07:40:49;;;;;;;;;;;;;;;11.79;90.54;100576.84;5041575;28;20107;-74
2022/12/06 07:45:58;;;;;;;;;;;;;;;11.69;90.52;100584.00;5034628;28;19958;-66
2022/12/06 07:48:24;;;;;;;;;;;;;;;11.70;89.93;100579.53;5028495;28;19933;-73
2022/12/06 07:50:51;;;;;;;;;;;;;;;11.60;90.31;100584.06;5026241;28;19914;-66
2022/12/06 07:53:16;;;;;;;;;;;;;;;11.63;89.60;100567.84;5028313;28;20109;-66
2022/12/06 07:55:41;;;;;;;;;;;;;;;11.71;89.63;100567.94;5026359;28;19913;-73
2022/12/06 07:58:07;;;;;;;;;;;;;;;11.78;89.14;100572.53;5028163;28;19992;-73
2022/12/06 08:00:32;;;;;;;;;;;;;;;11.81;89.75;100574.91;5008254;28;19913;-76
2022/12/06 08:02:57;;;;;;;;;;;;;;;11.89;86.17;100570.66;5021728;28;19912;-66
2022/12/06 08:05:23;;;;;;;;;;;;;;;11.74;86.04;100571.13;5027064;28;20111;-70
2022/12/06 08:07:48;;;;;;;;;;;;;;;11.48;87.89;100570.19;5028033;28;19940;-68
2022/12/06 08:10:13;;;;;;;;;;;;;;;11.55;89.24;100573.06;5026647;28;19921;-75
2022/12/06 08:12:38;;;;;;;;;;;;;;;11.55;89.07;100573.06;5027892;28;19981;-68
2022/12/06 08:15:04;;;;;;;;;;;;;;;11.80;88.37;100573.22;5027139;28;19985;-68
2022/12/06 08:17:30;;;;;;;;;;;;;;;11.80;89.42;100569.75;5027526;28;19943;-68
2022/12/06 08:19:55;;;;;;;;;;;;;;;11.89;88.51;100563.53;5028488;28;20111;-68
2022/12/06 08:22:20;;;;;;;;;;;;;;;12.04;88.31;100569.97;5026658;28;19935;-69
2022/12/06 08:24:45;;;;;;;;;;;;;;;12.17;88.23;100566.13;5029030;28;19925;-75
2022/12/06 08:27:11;;;;;;;;;;;;;;;12.27;86.65;100558.91;5026844;28;20215;-75
2022/12/06 08:29:36;;;;;;;;;;;;;;;12.21;85.57;100557.69;5027435;28;20008;-75
2022/12/06 08:32:01;;;;;;;;;;;;;;;12.13;86.61;100552.31;5009055;28;19913;-75
2022/12/06 08:34:26;;;;;;;;;;;;;;;12.18;85.65;100558.00;5027070;28;19955;-68
2022/12/06 08:36:52;;;;;;;;;;;;;;;12.07;85.33;100523.72;5025265;28;19913;-68
2022/12/06 08:39:17;;;;;;;;;;;;;;;12.34;84.72;100549.31;5027798;28;20218;-76
2022/12/06 08:41:54;;;;;;;;;;;;;;;12.42;84.60;100549.41;5026064;28;19936;-68
2022/12/06 08:44:20;;;;;;;;;;;;;;;12.43;82.84;100543.94;5026535;28;19925;-74
2022/12/06 08:46:46;;;;;;;;;;;;;;;12.54;84.00;100532.25;5027089;28;19947;-75
2022/12/06 08:49:12;;;;;;;;;;;;;;;12.43;83.45;100533.31;5009485;28;20111;-73
2022/12/06 08:51:38;;;;;;;;;;;;;;;12.32;84.72;100541.50;5027788;28;19921;-67
2022/12/06 08:54:04;;;;;;;;;;;;;;;12.01;86.47;100535.78;5025694;28;19960;-66
2022/12/06 08:56:29;;;;;;;;;;;;;;;11.85;86.22;100530.31;5027618;28;19928;-73
2022/12/06 08:58:55;;;;;;;;;;;;;;;11.72;87.69;100519.22;5025800;28;19925;-73
2022/12/06 09:01:28;;;;;;;;;;;;;;;11.88;86.99;100521.22;5027010;28;19928;-73
2022/12/06 09:03:53;;;;;;;;;;;;;;;12.02;85.63;100528.66;5028936;28;19940;-73
2022/12/06 09:06:19;;;;;;;;;;;;;;;12.06;85.94;100524.69;5025864;28;19921;-66
2022/12/06 09:08:45;;;;;;;;;;;;;;;12.08;86.57;100512.09;5008856;28;19945;-73
2022/12/06 09:11:10;;;;;;;;;;;;;;;12.14;85.63;100520.28;5026325;28;19913;-73
2022/12/06 09:13:36;;;;;;;;;;;;;;;12.14;85.29;100509.69;5027737;28;19925;-76
2022/12/06 09:16:09;;;;;;;;;;;;;;;12.28;85.05;100513.59;5025747;28;19929;-76
2022/12/06 09:18:35;;;;;;;;;;;;;;;12.33;83.86;100506.00;5026756;28;19917;-76
2022/12/06 09:21:03;;;;;;;;;;;;;;;12.40;84.31;100503.56;5026940;28;19920;-76
2022/12/06 09:23:29;;;;;;;;;;;;;;;12.12;86.05;100493.06;5027433;28;19924;-75
2022/12/06 09:25:54;;;;;;;;;;;;;;;12.42;82.96;100498.94;5026858;28;19913;-75
2022/12/06 09:28:19;;;;;;;;;;;;;;;12.40;82.77;100491.13;5025434;28;19925;-75
2022/12/06 09:30:45;;;;;;;;;;;;;;;12.58;82.15;100483.13;5025243;28;19913;-68
2022/12/06 09:33:10;;;;;;;;;;;;;;;12.70;81.93;100478.38;5026894;28;20171;-68
2022/12/06 09:35:35;;;;;;;;;;;;;;;12.63;80.71;100480.84;5026224;28;19988;-68
2022/12/06 09:38:02;;;;;;;;;;;;;;;12.44;80.48;100479.19;5025577;28;20253;-75
2022/12/06 09:40:33;;;;;;;;;;;;;;;12.34;82.06;100485.59;5026804;28;19913;-75
2022/12/06 09:43:17;;;;;;;;;;;;;;;12.47;81.17;100478.88;5026981;28;19975;-68
2022/12/06 09:45:42;;;;;;;;;;;;;;;12.61;80.12;100472.19;5023642;28;19913;-68
2022/12/06 09:48:26;;;;;;;;;;;;;;;12.37;80.26;100469.34;5026716;28;19971;-68
2022/12/06 09:51:08;;;;;;;;;;;;;;;12.49;81.43;100462.81;5028202;28;19922;-68
2022/12/06 09:53:33;;;;;;;;;;;;;;;12.59;80.24;100452.91;5010668;28;19917;-75
2022/12/06 09:55:59;;;;;;;;;;;;;;;12.58;81.19;100453.91;5026178;28;19991;-69
2022/12/06 09:58:31;;;;;;;;;;;;;;;12.82;80.29;100455.03;5024723;28;20296;-75
2022/12/06 10:01:12;;;;;;;;;;;;;;;12.69;80.28;100452.78;5027429;28;19913;-68
2022/12/06 10:03:43;;;;;;;;;;;;;;;12.70;79.16;100449.97;5025629;28;19924;-75
2022/12/06 10:06:12;;;;;;;;;;;;;;;12.61;78.31;100448.28;5027148;28;20219;-74
2022/12/06 10:08:43;;;;;;;;;;;;;;;12.81;77.70;100443.56;5026801;28;20068;-68
2022/12/06 10:11:21;;;;;;;;;;;;;;;12.74;78.33;100438.03;5026634;28;19936;-68
2022/12/06 10:13:49;;;;;;;;;;;;;;;12.80;78.48;100439.22;5026294;28;19944;-68
2022/12/06 10:16:21;;;;;;;;;;;;;;;12.67;77.95;100429.03;5025117;28;19921;-68
2022/12/06 10:19:01;;;;;;;;;;;;;;;12.82;78.12;100431.09;5025372;28;19916;-68
2022/12/06 10:21:29;;;;;;;;;;;;;;;12.76;79.39;100413.97;5026182;28;20076;-69
2022/12/06 10:24:13;;;;;;;;;;;;;;;12.88;78.80;100403.88;5027178;28;19928;-68
2022/12/06 10:26:44;;;;;;;;;;;;;;;13.04;78.17;100401.28;5035992;28;20084;-75
2022/12/06 10:29:13;;;;;;;;;;;;;;;12.97;77.80;100406.41;5037110;28;19951;-69
2022/12/06 10:31:38;;;;;;;;;;;;;;;12.75;78.67;100401.69;5026982;28;19927;-75
2022/12/06 10:34:26;;;;;;;;;;;;;;;12.43;79.82;100395.19;5024878;28;19921;-75
2022/12/06 10:36:54;;;;;;;;;;;;;;;12.31;81.65;100395.63;5026771;28;19928;-73
2022/12/06 10:39:42;;;;;;;;;;;;;;;12.36;81.76;100383.53;5025851;28;20078;-75
2022/12/06 10:42:14;;;;;;;;;;;;;;;12.25;81.48;100380.31;5007481;28;20194;-68
2022/12/06 10:44:44;;;;;;;;;;;;;;;11.94;83.06;100378.13;5026144;28;19925;-68
2022/12/06 10:47:22;;;;;;;;;;;;;;;12.01;82.86;100360.59;5029839;28;19920;-74
2022/12/06 10:49:56;;;;;;;;;;;;;;;11.91;84.75;100362.53;5029742;28;19917;-75
2022/12/06 10:52:25;;;;;;;;;;;;;;;11.89;83.21;100361.00;5029150;28;19913;-75
2022/12/06 10:55:02;;;;;;;;;;;;;;;11.76;84.70;100358.72;5030061;28;19917;-75
2022/12/06 10:57:28;;;;;;;;;;;;;;;11.82;84.61;100352.84;5012959;28;20115;-68
2022/12/06 10:59:57;;;;;;;;;;;;;;;11.96;83.48;100348.78;5028837;28;19918;-68
2022/12/06 11:02:46;;;;;;;;;;;;;;;11.82;83.32;100347.53;5029525;28;20488;-74
2022/12/06 11:05:41;;;;;;;;;;;;;;;12.03;83.27;100347.16;5025483;28;19925;-68
2022/12/06 11:08:26;;;;;;;;;;;;;;;12.00;83.94;100337.69;5029740;28;20153;-68
2022/12/06 11:10:53;;;;;;;;;;;;;;;11.93;83.43;100336.66;5023332;28;20110;-73
2022/12/06 11:13:21;;;;;;;;;;;;;;;11.86;82.92;100332.97;5042708;28;19917;-73
2022/12/06 11:15:56;;;;;;;;;;;;;;;11.99;83.43;100335.19;5038599;28;19921;-73
2022/12/06 11:18:21;;;;;;;;;;;;;;;12.11;81.78;100337.44;5042143;28;20226;-72
2022/12/06 11:20:50;;;;;;;;;;;;;;;12.22;81.03;100330.19;5043573;28;19924;-69
2022/12/06 11:23:20;;;;;;;;;;;;;;;12.24;81.79;100326.38;5044069;28;19944;-68
2022/12/06 11:26:00;;;;;;;;;;;;;;;12.30;80.11;100325.75;5041929;28;19917;-68
2022/12/06 11:28:31;;;;;;;;;;;;;;;12.33;79.94;100319.28;5039463;28;20260;-75
2022/12/06 11:30:57;;;;;;;;;;;;;;;12.31;79.89;100311.47;5044025;28;19912;-68
2022/12/06 11:33:29;;;;;;;;;;;;;;;12.28;79.55;100306.47;5043240;28;19994;-68
2022/12/06 11:35:55;;;;;;;;;;;;;;;12.30;79.81;100303.66;5038404;28;19920;-66
2022/12/06 11:38:20;;;;;;;;;;;;;;;12.27;79.55;100299.50;5042331;28;19940;-68
2022/12/06 11:40:47;;;;;;;;;;;;;;;12.27;80.33;100294.19;5041919;28;19920;-68
2022/12/06 11:43:16;;;;;;;;;;;;;;;12.23;80.63;100300.81;5024198;28;19989;-75
2022/12/06 11:45:44;;;;;;;;;;;;;;;12.31;80.91;100305.34;5041498;28;19913;-75
2022/12/06 11:48:20;;;;;;;;;;;;;;;12.52;79.09;100307.59;5024800;28;20230;-75
2022/12/06 11:50:46;;;;;;;;;;;;;;;12.56;78.78;100309.78;5024474;28;19913;-68
2022/12/06 11:53:22;;;;;;;;;;;;;;;12.71;77.97;100308.16;5042336;28;20210;-75
2022/12/06 11:55:49;;;;;;;;;;;;;;;12.65;78.57;100307.97;5041912;28;19920;-75
2022/12/06 11:58:17;;;;;;;;;;;;;;;12.68;78.36;100307.66;5042493;28;19959;-69
2022/12/06 12:00:55;;;;;;;;;;;;;;;12.77;77.95;100304.84;5043456;28;19920;-68
2022/12/06 12:03:27;;;;;;;;;;;;;;;12.66;77.83;100299.84;5042127;28;19917;-69
2022/12/06 12:06:05;;;;;;;;;;;;;;;12.62;77.75;100301.16;5020591;28;19928;-75
2022/12/06 12:08:30;;;;;;;;;;;;;;;12.73;78.24;100294.72;5024105;28;19979;-74
2022/12/06 12:10:58;;;;;;;;;;;;;;;12.73;77.28;100292.06;5040974;28;19913;-68
2022/12/06 12:16:16;;;;;;;;;;;;;;;12.86;77.54;100289.75;5039841;28;19959;-68
2022/12/06 12:18:48;;;;;;;;;;;;;;;13.15;76.80;100288.47;5041615;28;19932;-69
2022/12/06 12:21:13;;;;;;;;;;;;;;;13.17;76.73;100286.50;5041148;28;19951;-69
2022/12/06 12:23:43;;;;;;;;;;;;;;;13.11;77.19;100274.66;5041683;28;20197;-75
2022/12/06 12:26:21;;;;;;;;;;;;;;;13.25;75.18;100278.53;5040348;28;19913;-68
2022/12/06 12:29:04;;;;;;;;;;;;;;;13.09;75.18;100264.19;5027707;28;19924;-68
2022/12/06 12:31:30;;;;;;;;;;;;;;;12.96;76.13;100261.19;5028436;28;19921;-68
2022/12/06 12:34:14;;;;;;;;;;;;;;;12.44;77.38;100264.06;5030963;28;19924;-75
2022/12/06 12:36:45;;;;;;;;;;;;;;;12.44;78.23;100264.06;5035033;28;19952;-69
2022/12/06 12:39:20;;;;;;;;;;;;;;;12.67;77.25;100260.81;5028809;28;20025;-71
2022/12/06 12:41:45;;;;;;;;;;;;;;;12.77;77.49;100259.69;5027129;28;19913;-75
2022/12/06 12:44:31;;;;;;;;;;;;;;;12.80;76.51;100253.19;5026790;28;20212;-68
2022/12/06 12:46:57;;;;;;;;;;;;;;;12.76;77.25;100262.50;5028058;28;19929;-75
2022/12/06 12:49:33;;;;;;;;;;;;;;;12.81;77.55;100257.53;5027193;28;19917;-68
2022/12/06 12:51:59;;;;;;;;;;;;;;;12.92;76.35;100262.53;5026803;28;20136;-68
2022/12/06 12:54:25;;;;;;;;;;;;;;;12.57;77.00;100257.47;5026566;28;19921;-68
2022/12/06 12:56:50;;;;;;;;;;;;;;;12.35;79.18;100256.22;5026531;28;20000;-74
2022/12/06 12:59:17;;;;;;;;;;;;;;;12.12;79.65;100246.19;5027897;28;20215;-75
2022/12/06 13:01:49;;;;;;;;;;;;;;;12.02;78.89;100221.59;5025648;28;20226;-68
2022/12/06 13:04:17;;;;;;;;;;;;;;;12.06;79.68;100241.50;5026084;28;20193;-68